createdAt,value
2024-02-24T00:02:01.192Z,3.06
2024-02-24T00:04:27.698Z,3.06
2024-02-24T00:06:54.069Z,3.03
2024-02-24T00:09:20.786Z,3.18
2024-02-24T00:11:47.214Z,3.20
2024-02-24T00:14:13.667Z,3.19
2024-02-24T00:16:40.049Z,3.27
2024-02-24T00:19:06.768Z,3.31
2024-02-24T00:21:33.247Z,3.32
2024-02-24T00:23:59.651Z,3.37
2024-02-24T00:26:26.010Z,3.37
2024-02-24T00:28:52.626Z,3.33
2024-02-24T00:31:19.185Z,3.22
2024-02-24T00:33:45.506Z,3.26
2024-02-24T00:36:12.401Z,3.25
2024-02-24T00:38:39.129Z,3.10
2024-02-24T00:41:05.652Z,3.08
2024-02-24T00:43:32.238Z,3.14
2024-02-24T00:45:58.705Z,3.10
2024-02-24T00:48:25.194Z,3.06
2024-02-24T00:50:51.751Z,2.99
2024-02-24T00:53:18.145Z,3.01
2024-02-24T00:55:44.574Z,3.00
2024-02-24T00:58:10.972Z,3.11
2024-02-24T01:00:37.647Z,3.11
2024-02-24T01:03:04.299Z,3.06
2024-02-24T01:05:30.850Z,2.97
2024-02-24T01:07:57.749Z,2.96
2024-02-24T01:10:27.333Z,3.09
2024-02-24T01:12:53.726Z,3.08
2024-02-24T01:15:20.103Z,3.03
2024-02-24T01:17:46.527Z,3.11
2024-02-24T01:20:13.348Z,2.96
2024-02-24T01:22:39.981Z,3.00
2024-02-24T01:25:06.961Z,2.93
2024-02-24T01:27:33.455Z,2.95
2024-02-24T01:29:59.772Z,2.95
2024-02-24T01:32:26.415Z,2.89
2024-02-24T01:34:52.782Z,2.84
2024-02-24T01:37:19.119Z,2.82
2024-02-24T01:39:45.458Z,2.80
2024-02-24T01:42:12.049Z,2.81
2024-02-24T01:44:38.488Z,2.82
2024-02-24T01:47:04.913Z,2.76
2024-02-24T01:49:31.512Z,2.64
2024-02-24T01:51:58.232Z,2.62
2024-02-24T01:54:25.331Z,2.55
2024-02-24T01:56:52.906Z,2.49
2024-02-24T01:59:19.747Z,2.39
2024-02-24T02:01:46.122Z,2.37
2024-02-24T02:04:12.594Z,2.47
2024-02-24T02:06:39.371Z,2.45
2024-02-24T02:09:05.972Z,2.39
2024-02-24T02:11:33.502Z,2.35
2024-02-24T02:14:03.879Z,2.33
2024-02-24T02:16:30.521Z,2.34
2024-02-24T02:18:57.031Z,2.38
2024-02-24T02:21:24.975Z,2.31
2024-02-24T02:23:51.611Z,2.41
2024-02-24T02:26:19.228Z,2.33
2024-02-24T02:28:45.953Z,2.40
2024-02-24T02:31:12.524Z,2.35
2024-02-24T02:33:38.902Z,2.38
2024-02-24T02:36:06.168Z,2.41
2024-02-24T02:38:32.538Z,2.39
2024-02-24T02:40:58.997Z,2.36
2024-02-24T02:43:25.493Z,2.39
2024-02-24T02:45:51.821Z,2.38
2024-02-24T02:48:18.287Z,2.38
2024-02-24T02:50:44.805Z,2.42
2024-02-24T02:53:11.290Z,2.34
2024-02-24T02:55:37.720Z,2.39
2024-02-24T02:58:04.426Z,2.41
2024-02-24T03:00:30.816Z,2.35
2024-02-24T03:02:57.243Z,2.34
2024-02-24T03:05:23.909Z,2.32
2024-02-24T03:07:50.286Z,2.28
2024-02-24T03:10:16.722Z,2.30
2024-02-24T03:12:43.323Z,2.20
2024-02-24T03:15:10.053Z,2.20
2024-02-24T03:17:36.736Z,2.15
2024-02-24T03:20:04.676Z,2.05
2024-02-24T03:22:33.250Z,2.04
2024-02-24T03:24:59.591Z,2.03
2024-02-24T03:27:26.192Z,1.99
2024-02-24T03:29:52.635Z,2.09
2024-02-24T03:32:19.082Z,2.09
2024-02-24T03:34:45.588Z,1.98
2024-02-24T03:37:12.079Z,2.03
2024-02-24T03:39:39.145Z,1.95
2024-02-24T03:42:05.871Z,1.95
2024-02-24T03:44:32.510Z,1.94
2024-02-24T03:46:58.937Z,1.99
2024-02-24T03:49:25.359Z,1.96
2024-02-24T03:51:51.893Z,1.93
2024-02-24T03:54:18.285Z,1.85
2024-02-24T03:56:44.844Z,1.85
2024-02-24T03:59:11.603Z,1.85
2024-02-24T04:01:41.181Z,1.81
2024-02-24T04:04:07.526Z,1.78
2024-02-24T04:06:33.960Z,1.84
2024-02-24T04:09:00.709Z,1.75
2024-02-24T04:11:27.200Z,1.76
2024-02-24T04:13:53.716Z,1.74
2024-02-24T04:16:21.208Z,1.73
2024-02-24T04:18:47.586Z,1.69
2024-02-24T04:21:14.195Z,1.73
2024-02-24T04:23:40.875Z,1.74
2024-02-24T04:26:08.206Z,1.67
2024-02-24T04:28:34.640Z,1.69
2024-02-24T04:31:01.047Z,1.73
2024-02-24T04:33:27.481Z,1.73
2024-02-24T04:35:53.882Z,1.74
2024-02-24T04:38:20.497Z,1.72
2024-02-24T04:40:46.816Z,1.74
2024-02-24T04:43:13.153Z,1.76
2024-02-24T04:45:40.000Z,1.71
2024-02-24T04:48:06.991Z,1.73
2024-02-24T04:50:33.617Z,1.68
2024-02-24T04:53:00.128Z,1.63
2024-02-24T04:55:26.584Z,1.56
2024-02-24T04:57:53.145Z,1.46
2024-02-24T05:00:20.017Z,1.46
2024-02-24T05:02:46.931Z,1.39
2024-02-24T05:05:13.872Z,1.36
2024-02-24T05:07:40.569Z,1.35
2024-02-24T05:10:08.315Z,1.32
2024-02-24T05:12:35.401Z,1.38
2024-02-24T05:15:02.133Z,1.31
2024-02-24T05:17:28.906Z,1.31
2024-02-24T05:19:55.553Z,1.34
2024-02-24T05:22:21.981Z,1.25
2024-02-24T05:24:48.394Z,1.20
2024-02-24T05:27:14.740Z,1.20
2024-02-24T05:29:48.239Z,1.20
2024-02-24T05:32:18.509Z,1.18
2024-02-24T05:34:45.087Z,1.18
2024-02-24T05:37:11.931Z,1.20
2024-02-24T05:39:39.438Z,1.20
2024-02-24T05:42:06.907Z,1.21
2024-02-24T05:44:33.347Z,1.21
2024-02-24T05:46:59.706Z,1.09
2024-02-24T05:49:26.333Z,1.12
2024-02-24T05:51:52.656Z,1.15
2024-02-24T05:54:19.025Z,1.18
2024-02-24T05:56:45.588Z,1.23
2024-02-24T05:59:12.251Z,1.24
2024-02-24T06:01:38.715Z,1.25
2024-02-24T06:04:05.246Z,1.29
2024-02-24T06:06:31.979Z,1.24
2024-02-24T06:08:58.467Z,1.16
2024-02-24T06:11:25.144Z,1.20
2024-02-24T06:13:53.996Z,1.21
2024-02-24T06:16:20.768Z,1.23
2024-02-24T06:18:47.399Z,1.35
2024-02-24T06:21:13.793Z,1.41
2024-02-24T06:23:40.403Z,1.35
2024-02-24T06:26:07.060Z,1.51
2024-02-24T06:28:33.657Z,1.58
2024-02-24T06:30:59.979Z,1.66
2024-02-24T06:33:26.452Z,1.73
2024-02-24T06:35:53.337Z,1.74
2024-02-24T06:38:20.752Z,1.77
2024-02-24T06:40:47.371Z,1.77
2024-02-24T06:43:14.044Z,1.82
2024-02-24T06:45:40.707Z,1.73
2024-02-24T06:48:08.026Z,1.78
2024-02-24T06:50:34.887Z,1.79
2024-02-24T06:53:01.563Z,1.78
2024-02-24T06:55:28.107Z,1.86
2024-02-24T06:57:54.591Z,1.95
2024-02-24T07:00:22.720Z,2.11
2024-02-24T07:02:51.058Z,2.16
2024-02-24T07:05:17.725Z,2.21
2024-02-24T07:07:44.234Z,2.30
2024-02-24T07:10:10.890Z,2.33
2024-02-24T07:12:39.866Z,2.41
2024-02-24T07:15:08.647Z,2.44
2024-02-24T07:17:35.103Z,2.50
2024-02-24T07:20:01.467Z,2.50
2024-02-24T07:22:28.481Z,2.56
2024-02-24T07:24:55.221Z,2.58
2024-02-24T07:27:21.605Z,2.68
2024-02-24T07:29:48.060Z,2.72
2024-02-24T07:32:14.440Z,2.70
2024-02-24T07:34:41.095Z,2.75
2024-02-24T07:37:07.854Z,2.70
2024-02-24T07:39:34.525Z,2.67
2024-02-24T07:42:01.136Z,2.63
2024-02-24T07:44:27.560Z,2.69
2024-02-24T07:46:54.607Z,2.66
2024-02-24T07:49:21.008Z,2.67
2024-02-24T07:51:48.634Z,2.68
2024-02-24T07:54:15.235Z,2.71
2024-02-24T07:56:41.698Z,2.76
2024-02-24T07:59:08.346Z,2.77
2024-02-24T08:01:34.704Z,2.77
2024-02-24T08:04:01.280Z,2.82
2024-02-24T08:06:27.938Z,2.87
2024-02-24T08:08:54.854Z,3.02
2024-02-24T08:11:21.779Z,3.04
2024-02-24T08:13:48.350Z,3.13
2024-02-24T08:16:14.850Z,3.33
2024-02-24T08:18:41.390Z,3.29
2024-02-24T08:21:08.870Z,3.25
2024-02-24T08:23:36.369Z,3.30
2024-02-24T08:26:03.976Z,3.42
2024-02-24T08:28:30.768Z,3.36
2024-02-24T08:31:00.203Z,3.36
2024-02-24T08:33:27.207Z,3.50
2024-02-24T08:35:54.652Z,3.58
2024-02-24T08:38:21.349Z,3.54
2024-02-24T08:40:47.797Z,3.52
2024-02-24T08:43:14.688Z,3.54
2024-02-24T08:45:42.542Z,3.60
2024-02-24T08:48:10.872Z,3.61
2024-02-24T08:50:37.349Z,3.65
2024-02-24T08:53:04.037Z,3.72
2024-02-24T08:55:30.474Z,3.78
2024-02-24T08:57:57.130Z,3.89
2024-02-24T09:00:23.629Z,3.91
2024-02-24T09:02:50.278Z,3.98
2024-02-24T09:05:17.208Z,4.02
2024-02-24T09:07:43.741Z,3.98
2024-02-24T09:10:10.646Z,3.99
2024-02-24T09:12:37.168Z,4.06
2024-02-24T09:15:04.935Z,4.13
2024-02-24T09:17:31.431Z,4.18
2024-02-24T09:19:58.024Z,4.23
2024-02-24T09:22:24.583Z,4.29
2024-02-24T09:24:51.188Z,4.33
2024-02-24T09:27:17.531Z,4.42
2024-02-24T09:29:43.899Z,4.56
2024-02-24T09:32:10.269Z,4.82
2024-02-24T09:34:37.010Z,4.92
2024-02-24T09:37:06.103Z,4.98
2024-02-24T09:39:32.717Z,5.11
2024-02-24T09:42:00.864Z,5.04
2024-02-24T09:44:30.565Z,5.16
2024-02-24T09:46:58.582Z,5.28
2024-02-24T09:49:28.479Z,5.47
2024-02-24T09:51:54.889Z,5.51
2024-02-24T09:54:21.389Z,5.58
2024-02-24T09:56:52.833Z,5.65
2024-02-24T09:59:22.261Z,5.66
2024-02-24T10:01:49.274Z,5.62
2024-02-24T10:04:16.541Z,5.65
2024-02-24T10:06:43.076Z,5.81
2024-02-24T10:09:10.211Z,5.93
2024-02-24T10:11:38.215Z,6.04
2024-02-24T10:14:06.094Z,5.83
2024-02-24T10:16:38.932Z,5.82
2024-02-24T10:19:08.959Z,5.90
2024-02-24T10:21:35.628Z,6.02
2024-02-24T10:24:04.313Z,6.27
2024-02-24T10:26:30.992Z,6.30
2024-02-24T10:28:57.775Z,6.43
2024-02-24T10:31:28.364Z,6.30
2024-02-24T10:33:56.242Z,6.30
2024-02-24T10:36:23.428Z,6.45
2024-02-24T10:38:55.429Z,6.66
2024-02-24T10:41:25.670Z,6.80
2024-02-24T10:44:02.426Z,6.79
2024-02-24T10:46:36.926Z,6.73
2024-02-24T10:49:04.238Z,6.93
2024-02-24T10:51:33.291Z,6.90
2024-02-24T10:54:12.913Z,6.84
2024-02-24T10:56:40.508Z,7.02
2024-02-24T10:59:11.445Z,7.07
2024-02-24T11:01:46.161Z,7.30
2024-02-24T11:04:13.710Z,7.38
2024-02-24T11:06:49.964Z,7.36
2024-02-24T11:09:21.444Z,7.50
2024-02-24T11:11:49.073Z,7.42
2024-02-24T11:14:21.548Z,7.39
2024-02-24T11:16:49.686Z,7.49
2024-02-24T11:19:49.298Z,7.61
2024-02-24T11:22:25.756Z,7.65
2024-02-24T11:25:03.716Z,7.66
2024-02-24T11:27:37.831Z,7.81
2024-02-24T11:30:43.443Z,7.76
2024-02-24T11:33:27.454Z,7.91
2024-02-24T11:35:56.038Z,7.87
2024-02-24T11:38:23.986Z,7.80
2024-02-24T11:40:51.159Z,7.79
2024-02-24T11:43:19.194Z,7.82
2024-02-24T11:45:55.034Z,7.93
2024-02-24T11:48:22.813Z,7.96
2024-02-24T11:50:50.802Z,7.94
2024-02-24T11:53:19.271Z,7.89
2024-02-24T11:55:48.426Z,8.00
2024-02-24T11:58:16.424Z,8.05
2024-02-24T12:00:42.923Z,7.95
2024-02-24T12:03:16.585Z,8.33
2024-02-24T12:05:43.746Z,8.34
2024-02-24T12:08:13.222Z,8.27
2024-02-24T12:10:40.602Z,8.26
2024-02-24T12:13:09.591Z,8.45
2024-02-24T12:15:36.715Z,8.34
2024-02-24T12:18:07.074Z,8.19
2024-02-24T12:20:49.997Z,8.21
2024-02-24T12:23:20.126Z,8.23
2024-02-24T12:25:46.596Z,8.32
2024-02-24T12:28:12.977Z,8.42
2024-02-24T12:30:41.404Z,8.26
2024-02-24T12:33:15.768Z,8.38
2024-02-24T12:35:43.871Z,8.44
2024-02-24T12:38:17.386Z,8.41
2024-02-24T12:40:45.473Z,8.57
2024-02-24T12:43:12.726Z,8.52
2024-02-24T12:45:42.161Z,8.28
2024-02-24T12:48:09.356Z,8.34
2024-02-24T12:50:36.527Z,8.27
2024-02-24T12:53:08.396Z,8.22
2024-02-24T12:55:34.987Z,8.21
2024-02-24T12:58:01.759Z,8.13
2024-02-24T13:00:28.421Z,8.14
2024-02-24T13:02:57.180Z,8.27
2024-02-24T13:05:24.129Z,8.39
2024-02-24T13:07:52.837Z,8.39
2024-02-24T13:10:20.010Z,8.38
2024-02-24T13:12:46.463Z,8.46
2024-02-24T13:15:13.068Z,8.51
2024-02-24T13:17:39.880Z,8.63
2024-02-24T13:20:06.673Z,8.74
2024-02-24T13:22:33.088Z,8.59
2024-02-24T13:24:59.445Z,8.54
2024-02-24T13:27:25.804Z,8.44
2024-02-24T13:29:52.568Z,8.46
2024-02-24T13:32:19.021Z,8.41
2024-02-24T13:34:46.180Z,8.46
2024-02-24T13:37:14.682Z,8.58
2024-02-24T13:39:41.273Z,8.60
2024-02-24T13:42:07.833Z,8.58
2024-02-24T13:44:34.605Z,8.40
2024-02-24T13:47:00.953Z,8.52
2024-02-24T13:49:27.647Z,8.63
2024-02-24T13:51:54.259Z,8.58
2024-02-24T13:54:20.858Z,8.61
2024-02-24T13:56:48.241Z,8.71
2024-02-24T13:59:14.902Z,8.61
2024-02-24T14:01:41.274Z,8.57
2024-02-24T14:04:07.614Z,8.49
2024-02-24T14:06:35.643Z,8.46
2024-02-24T14:09:07.074Z,8.47
2024-02-24T14:11:34.598Z,8.32
2024-02-24T14:14:01.434Z,8.21
2024-02-24T14:16:28.048Z,8.23
2024-02-24T14:18:54.893Z,8.25
2024-02-24T14:21:22.747Z,8.34
2024-02-24T14:23:49.278Z,8.28
2024-02-24T14:26:16.007Z,8.11
2024-02-24T14:28:42.712Z,8.07
2024-02-24T14:31:10.242Z,8.08
2024-02-24T14:33:36.723Z,8.13
2024-02-24T14:36:03.937Z,8.15
2024-02-24T14:38:30.458Z,8.18
2024-02-24T14:41:28.149Z,8.04
2024-02-24T14:43:54.763Z,7.98
2024-02-24T14:46:21.331Z,7.94
2024-02-24T14:48:49.690Z,7.89
2024-02-24T14:51:16.280Z,7.90
2024-02-24T14:53:43.085Z,7.97
2024-02-24T14:56:09.523Z,7.91
2024-02-24T14:58:36.299Z,8.05
2024-02-24T15:01:02.768Z,8.07
2024-02-24T15:03:29.462Z,8.06
2024-02-24T15:05:55.958Z,8.09
2024-02-24T15:08:23.626Z,8.09
2024-02-24T15:10:51.345Z,8.01
2024-02-24T15:13:22.913Z,7.97
2024-02-24T15:15:52.228Z,7.95
2024-02-24T15:18:18.650Z,8.01
2024-02-24T15:20:45.347Z,7.95
2024-02-24T15:23:13.917Z,7.97
2024-02-24T15:25:40.663Z,7.89
2024-02-24T15:28:07.312Z,7.80
2024-02-24T15:30:34.082Z,7.75
2024-02-24T15:33:02.032Z,7.72
2024-02-24T15:35:28.597Z,7.69
2024-02-24T15:37:55.350Z,7.84
2024-02-24T15:40:21.664Z,7.78
2024-02-24T15:42:48.068Z,7.74
2024-02-24T15:45:14.469Z,7.66
2024-02-24T15:47:40.953Z,7.58
2024-02-24T15:50:07.858Z,7.67
2024-02-24T15:52:34.305Z,7.62
2024-02-24T15:55:00.861Z,7.57
2024-02-24T15:57:27.233Z,7.57
2024-02-24T15:59:53.700Z,7.50
2024-02-24T16:02:20.284Z,7.43
2024-02-24T16:04:46.945Z,7.48
2024-02-24T16:07:13.498Z,7.44
2024-02-24T16:09:40.023Z,7.31
2024-02-24T16:12:07.132Z,6.93
2024-02-24T16:14:33.539Z,6.33
2024-02-24T16:17:00.261Z,5.58
2024-02-24T16:19:26.607Z,5.32
2024-02-24T16:21:53.000Z,5.18
2024-02-24T16:24:19.422Z,4.93
2024-02-24T16:26:49.326Z,4.84
2024-02-24T16:29:15.714Z,4.92
2024-02-24T16:31:42.317Z,4.97
2024-02-24T16:34:10.113Z,4.96
2024-02-24T16:36:36.609Z,4.99
2024-02-24T16:39:10.465Z,4.93
2024-02-24T16:41:40.199Z,4.94
2024-02-24T16:44:10.003Z,4.88
2024-02-24T16:46:42.823Z,4.73
2024-02-24T16:49:09.657Z,4.78
2024-02-24T16:51:36.230Z,4.82
2024-02-24T16:54:02.853Z,4.83
2024-02-24T16:56:29.519Z,4.78
2024-02-24T16:58:55.928Z,4.82
2024-02-24T17:01:23.222Z,4.80
2024-02-24T17:03:49.747Z,4.85
2024-02-24T17:06:16.518Z,4.78
2024-02-24T17:08:45.397Z,4.64
2024-02-24T17:11:11.892Z,4.63
2024-02-24T17:13:38.624Z,4.67
2024-02-24T17:16:06.220Z,4.71
2024-02-24T17:18:36.595Z,4.68
2024-02-24T17:21:03.994Z,4.66
2024-02-24T17:23:30.625Z,4.68
2024-02-24T17:25:57.012Z,4.71
2024-02-24T17:28:23.606Z,4.63
2024-02-24T17:30:50.594Z,4.56
2024-02-24T17:33:17.049Z,4.49
2024-02-24T17:35:43.749Z,4.49
2024-02-24T17:38:10.238Z,4.44
2024-02-24T17:40:36.644Z,4.40
2024-02-24T17:43:04.003Z,4.34
2024-02-24T17:45:30.510Z,4.28
2024-02-24T17:47:56.929Z,4.26
2024-02-24T17:50:23.378Z,4.29
2024-02-24T17:52:49.875Z,4.18
2024-02-24T17:55:19.290Z,4.06
2024-02-24T17:57:46.628Z,3.95
2024-02-24T18:00:13.735Z,3.93
2024-02-24T18:02:40.502Z,4.02
2024-02-24T18:05:07.473Z,4.00
2024-02-24T18:07:34.281Z,3.93
2024-02-24T18:10:00.643Z,3.87
2024-02-24T18:12:27.040Z,3.84
2024-02-24T18:14:54.102Z,3.84
2024-02-24T18:17:20.756Z,3.89
2024-02-24T18:19:50.492Z,3.91
2024-02-24T18:22:16.820Z,3.79
2024-02-24T18:24:46.172Z,3.73
2024-02-24T18:27:12.873Z,3.64
2024-02-24T18:29:40.369Z,3.62
2024-02-24T18:32:07.838Z,3.61
2024-02-24T18:34:34.537Z,3.61
2024-02-24T18:37:01.064Z,3.64
2024-02-24T18:39:28.231Z,3.57
2024-02-24T18:41:54.934Z,3.50
2024-02-24T18:44:21.512Z,3.58
2024-02-24T18:46:47.924Z,3.60
2024-02-24T18:49:14.525Z,3.52
2024-02-24T18:51:41.099Z,3.48
2024-02-24T18:54:07.917Z,3.49
2024-02-24T18:56:34.720Z,3.48
2024-02-24T18:59:02.372Z,3.42
2024-02-24T19:01:28.821Z,3.41
2024-02-24T19:03:55.444Z,3.30
2024-02-24T19:06:22.122Z,3.29
2024-02-24T19:08:48.550Z,3.28
2024-02-24T19:11:15.111Z,3.22
2024-02-24T19:13:41.544Z,3.22
2024-02-24T19:16:08.156Z,3.09
2024-02-24T19:18:35.110Z,3.15
2024-02-24T19:21:01.970Z,3.14
2024-02-24T19:23:29.643Z,3.10
2024-02-24T19:25:57.517Z,3.02
2024-02-24T19:28:24.134Z,3.06
2024-02-24T19:30:50.814Z,3.02
2024-02-24T19:33:17.716Z,2.96
2024-02-24T19:35:44.178Z,2.95
2024-02-24T19:38:11.860Z,2.90
2024-02-24T19:40:38.310Z,2.87
2024-02-24T19:43:04.762Z,2.82
2024-02-24T19:45:31.250Z,2.76
2024-02-24T19:47:57.991Z,2.76
2024-02-24T19:50:24.436Z,2.82
2024-02-24T19:52:51.265Z,2.79
2024-02-24T19:55:19.648Z,2.79
2024-02-24T19:57:47.447Z,2.72
2024-02-24T20:00:14.323Z,2.66
2024-02-24T20:02:40.806Z,2.68
2024-02-24T20:05:09.158Z,2.68
2024-02-24T20:07:35.922Z,2.62
2024-02-24T20:10:02.393Z,2.65
2024-02-24T20:12:28.851Z,2.66
2024-02-24T20:14:55.475Z,2.74
2024-02-24T20:17:22.052Z,2.80
2024-02-24T20:19:48.543Z,2.83
2024-02-24T20:22:15.580Z,2.81
2024-02-24T20:24:42.634Z,2.75
2024-02-24T20:27:11.509Z,2.84
2024-02-24T20:29:38.013Z,2.88
2024-02-24T20:32:04.706Z,2.94
2024-02-24T20:34:31.384Z,2.93
2024-02-24T20:36:57.770Z,2.89
2024-02-24T20:39:24.146Z,2.93
2024-02-24T20:41:50.742Z,2.99
2024-02-24T20:44:18.464Z,3.01
2024-02-24T20:46:46.311Z,3.01
2024-02-24T20:49:15.439Z,2.92
2024-02-24T20:51:42.029Z,2.88
2024-02-24T20:54:08.456Z,2.94
2024-02-24T20:56:35.130Z,2.96
2024-02-24T20:59:01.727Z,3.03
2024-02-24T21:01:28.537Z,3.09
2024-02-24T21:03:55.044Z,3.05
2024-02-24T21:06:21.526Z,3.07
2024-02-24T21:08:48.274Z,3.15
2024-02-24T21:11:14.655Z,3.12
2024-02-24T21:13:41.149Z,3.18
2024-02-24T21:16:07.935Z,3.23
2024-02-24T21:18:35.025Z,3.14
2024-02-24T21:21:01.942Z,3.22
2024-02-24T21:23:28.437Z,3.22
2024-02-24T21:25:54.791Z,3.25
2024-02-24T21:28:21.154Z,3.32
2024-02-24T21:30:48.445Z,3.29
2024-02-24T21:33:15.336Z,3.31
2024-02-24T21:35:42.497Z,3.37
2024-02-24T21:38:08.868Z,3.33
2024-02-24T21:40:35.351Z,3.36
2024-02-24T21:43:04.698Z,3.49
2024-02-24T21:45:32.393Z,3.47
2024-02-24T21:47:59.062Z,3.43
2024-02-24T21:50:25.815Z,3.45
2024-02-24T21:52:52.563Z,3.44
2024-02-24T21:55:21.311Z,3.39
2024-02-24T21:57:47.991Z,3.40
2024-02-24T22:00:19.999Z,3.40
2024-02-24T22:02:46.846Z,3.34
2024-02-24T22:05:14.261Z,3.39
2024-02-24T22:07:41.695Z,3.46
2024-02-24T22:10:09.488Z,3.43
2024-02-24T22:12:35.942Z,3.46
2024-02-24T22:15:03.176Z,3.51
2024-02-24T22:17:29.677Z,3.43
2024-02-24T22:19:56.236Z,3.49
2024-02-24T22:22:22.644Z,3.40
2024-02-24T22:24:49.228Z,3.37
2024-02-24T22:27:15.822Z,3.30
2024-02-24T22:29:43.211Z,3.28
2024-02-24T22:32:09.639Z,3.26
2024-02-24T22:34:36.146Z,3.20
2024-02-24T22:37:02.539Z,3.13
2024-02-24T22:39:28.976Z,3.07
2024-02-24T22:41:55.464Z,3.04
2024-02-24T22:44:21.904Z,3.00
2024-02-24T22:46:48.266Z,2.99
2024-02-24T22:49:15.116Z,2.94
2024-02-24T22:51:41.702Z,3.01
2024-02-24T22:54:08.504Z,2.98
2024-02-24T22:56:36.208Z,2.87
2024-02-24T22:59:03.107Z,2.91
2024-02-24T23:01:31.762Z,2.89
2024-02-24T23:03:58.977Z,2.86
2024-02-24T23:06:25.734Z,2.79
2024-02-24T23:08:52.218Z,2.71
2024-02-24T23:11:26.042Z,2.69
2024-02-24T23:14:00.178Z,2.69
2024-02-24T23:16:28.835Z,2.73
2024-02-24T23:18:56.880Z,2.72
2024-02-24T23:21:23.779Z,2.70
2024-02-24T23:23:50.177Z,2.70
2024-02-24T23:26:16.599Z,2.74
2024-02-24T23:28:43.851Z,2.79
2024-02-24T23:31:10.355Z,2.87
2024-02-24T23:33:36.981Z,2.94
2024-02-24T23:36:03.857Z,2.98
2024-02-24T23:38:30.288Z,2.96
2024-02-24T23:40:56.695Z,3.02
2024-02-24T23:43:23.148Z,3.13
2024-02-24T23:45:49.752Z,3.15
2024-02-24T23:48:16.247Z,3.16
2024-02-24T23:50:42.702Z,3.18
2024-02-24T23:53:09.064Z,3.24
2024-02-24T23:55:35.455Z,3.34
2024-02-24T23:58:02.170Z,3.23
